Sun Valley, California
Current Conditions -  °F | °C
As of 6:53 PM on Saturday 22 Nov 2014 (Local Time) from KBUR Reporting Station
Clear Clear  
Wind Chill: 62°   Ceiling: Unl
Heat Index: 62°   Visibility: 10mi
Dew Point: 49°   Wind: 5mph
Humidity: 62%   Direction: 170°S
Pressure: 30.01"   Gusts: NA
Location:  34.22°N, 118.37°W
Report Text: KBUR 230253Z 17004KT 10SM CLR 17/09 A3001 RMK AO2 SLP154 T01670094 55001
Loading
Personal Weather Stations






























Interactive Weather Map New forecast layout! Learn more

10-Day Weather Forecast

Advertisements
Track Severe Weather on mobile